Time;durP1;ratioP1;P1;durP2;ratioP2;P2;SDS_P1;SDS_P2;PMS_P1;PMS_P2;Temp;Humidity;BMP_temperature;BMP_pressure;BME280_temperature;BME280_humidity;BME280_pressure;Samples;Min_cycle;Max_cycle;Signal;HPM_P1;HPM_P2
2021/08/16 00:09:30;;;;;;;6.97;5.63;;;;;;;18.93;63.01;98910.48;532498;1089;116949;-60
2021/08/16 00:19:36;;;;;;;9.37;6.47;;;;;;;18.85;63.36;98906.85;515735;1089;116289;-60
2021/08/16 00:29:43;;;;;;;9.00;6.57;;;;;;;18.75;63.67;98896.38;532618;1089;116121;-60
2021/08/16 00:39:50;;;;;;;7.43;6.43;;;;;;;18.67;64.10;98887.59;532605;1089;117192;-61
2021/08/16 00:49:56;;;;;;;6.27;5.67;;;;;;;18.58;64.41;98882.30;531845;1090;117298;-60
2021/08/16 01:00:04;;;;;;;7.33;6.63;;;;;;;18.56;64.95;98870.98;532531;1088;116553;-60
2021/08/16 01:10:12;;;;;;;10.15;7.55;;;;;;;18.57;65.26;98853.22;532635;1089;116192;-60
2021/08/16 01:20:19;;;;;;;8.10;6.93;;;;;;;18.55;65.41;98832.11;531838;1088;116864;-60
2021/08/16 01:30:25;;;;;;;13.20;9.30;;;;;;;18.55;66.04;98812.69;529328;1089;116816;-61
2021/08/16 01:40:32;;;;;;;9.93;8.73;;;;;;;18.60;66.25;98820.97;531970;1088;116994;-60
2021/08/16 01:50:38;;;;;;;9.90;8.83;;;;;;;18.75;66.66;98797.17;532609;1089;115978;-60
2021/08/16 02:00:45;;;;;;;12.93;9.33;;;;;;;18.81;66.64;98791.16;532554;1090;116202;-60
2021/08/16 02:10:52;;;;;;;11.17;9.97;;;;;;;18.78;66.76;98778.20;531881;1089;116789;-60
2021/08/16 02:20:58;;;;;;;10.20;9.20;;;;;;;18.73;66.99;98772.59;528914;1089;115724;-60
2021/08/16 02:31:05;;;;;;;11.77;9.63;;;;;;;18.70;67.46;98767.59;532623;1089;116008;-60
2021/08/16 02:41:11;;;;;;;12.03;9.13;;;;;;;18.72;68.07;98761.11;531823;1088;117593;-60
2021/08/16 02:51:18;;;;;;;15.37;10.80;;;;;;;18.71;68.14;98767.43;529157;1089;116552;-60
2021/08/16 03:01:24;;;;;;;12.03;10.30;;;;;;;18.73;68.40;98765.42;532588;1088;117184;-60
2021/08/16 03:11:31;;;;;;;12.67;11.23;;;;;;;18.69;68.50;98752.64;531821;1088;117930;-60
2021/08/16 03:21:38;;;;;;;12.03;10.93;;;;;;;18.66;69.05;98753.84;532545;1089;116027;-60
2021/08/16 03:31:45;;;;;;;11.07;10.03;;;;;;;18.64;69.37;98753.16;531805;1088;116020;-61
2021/08/16 03:41:51;;;;;;;14.13;12.63;;;;;;;18.70;69.21;98755.14;532562;1090;117414;-61
2021/08/16 03:51:58;;;;;;;12.60;11.37;;;;;;;18.70;69.18;98743.66;532559;1089;117453;-60
2021/08/16 04:02:05;;;;;;;13.13;11.83;;;;;;;18.69;69.43;98747.33;529095;1089;117675;-60
2021/08/16 04:12:15;;;;;;;14.65;11.98;;;;;;;18.77;69.52;98741.98;531933;1090;116887;-60
2021/08/16 04:22:21;;;;;;;13.97;11.97;;;;;;;18.95;69.39;98733.76;532524;1089;117403;-61
2021/08/16 04:32:28;;;;;;;14.17;12.13;;;;;;;19.08;69.47;98740.38;531772;1089;116996;-61
2021/08/16 04:42:35;;;;;;;13.70;12.40;;;;;;;19.28;69.52;98746.92;532308;1089;117024;-61
2021/08/16 04:52:43;;;;;;;14.30;12.10;;;;;;;19.91;69.27;98732.64;531460;1088;116952;-60
2021/08/16 05:02:49;;;;;;;11.55;10.43;;;;;;;20.92;67.69;98734.11;517166;1089;116805;-63
2021/08/16 05:12:57;;;;;;;10.93;9.73;;;;;;;22.05;66.42;98742.65;532498;1088;117515;-61
2021/08/16 05:23:02;;;;;;;;;;;;;;;24.49;63.20;98719.82;531731;1090;117686;-61
2021/08/16 05:33:09;;;;;;;9.60;6.73;;;;;;;26.01;58.41;98722.06;532762;1089;102990;-61
2021/08/16 05:43:15;;;;;;;7.97;5.33;;;;;;;25.23;57.92;98707.95;532503;1088;116043;-62
2021/08/16 05:53:22;;;;;;;5.50;5.00;;;;;;;31.07;51.36;98706.21;531855;1089;116969;-62
2021/08/16 06:03:28;;;;;;;5.98;4.60;;;;;;;38.54;42.49;98693.30;532568;1089;116683;-62
2021/08/16 06:13:35;;;;;;;4.78;4.15;;;;;;;42.66;35.03;98700.30;531860;1088;116402;-62
2021/08/16 06:23:41;;;;;;;5.45;4.63;;;;;;;40.63;31.56;98692.48;532630;1089;116704;-62
2021/08/16 06:33:48;;;;;;;17.37;6.63;;;;;;;38.98;33.46;98686.62;532470;1090;116615;-62
2021/08/16 06:43:54;;;;;;;5.28;4.60;;;;;;;44.40;29.24;98686.17;531793;1088;116709;-62
2021/08/16 06:54:01;;;;;;;15.35;5.68;;;;;;;47.81;24.93;98683.98;532614;1089;116422;-64
2021/08/16 07:04:21;;;;;;;4.73;4.40;;;;;;;50.08;22.38;98688.24;532480;1090;117049;-68
2021/08/16 07:14:28;;;;;;;7.60;5.53;;;;;;;52.01;20.51;98679.25;531912;1089;115987;-64
2021/08/16 07:24:35;;;;;;;6.75;6.25;;;;;;;51.24;18.81;98702.75;532520;1088;117361;-61
2021/08/16 07:34:41;;;;;;;5.60;5.10;;;;;;;43.44;22.14;98670.41;531862;1089;116149;-62
2021/08/16 07:44:48;;;;;;;7.43;5.40;;;;;;;43.34;23.88;98676.36;532628;1088;116478;-62
2021/08/16 07:54:57;;;;;;;6.75;5.60;;;;;;;50.08;20.09;98691.03;532350;1089;116649;-63
2021/08/16 08:05:07;;;;;;;7.25;5.90;;;;;;;52.17;17.81;98683.63;531756;1089;115736;-62
2021/08/16 08:15:16;;;;;;;6.28;5.58;;;;;;;46.89;18.15;98676.29;532532;1088;116613;-60
2021/08/16 08:25:23;;;;;;;9.28;5.95;;;;;;;41.87;22.14;98680.25;532570;1089;116924;-64
2021/08/16 08:35:29;;;;;;;11.30;6.25;;;;;;;39.74;24.08;98660.31;531843;1090;115956;-64
2021/08/16 08:45:38;;;;;;;6.18;5.18;;;;;;;38.03;25.55;98662.25;532645;1088;116684;-63
2021/08/16 08:55:44;;;;;;;12.97;5.43;;;;;;;36.68;26.80;98666.34;531884;1088;116005;-64
2021/08/16 09:05:56;;;;;;;18.48;6.90;;;;;;;34.17;29.07;98735.87;532640;1089;116313;-61
2021/08/16 09:16:11;;;;;;;8.70;6.70;;;;;;;31.92;34.49;98735.48;528520;1088;116268;-78
2021/08/16 09:26:24;;;;;;;7.70;6.65;;;;;;;31.26;37.22;98704.81;518428;1089;116743;-68
2021/08/16 09:36:51;;;;;;;8.97;6.47;;;;;;;31.14;38.70;98714.97;522589;1089;116507;-63
2021/08/16 09:47:05;;;;;;;7.48;6.73;;;;;;;31.57;38.23;98713.23;531844;1088;117487;-64
2021/08/16 09:57:12;;;;;;;9.70;7.25;;;;;;;32.07;37.53;98709.52;532636;1090;117459;-64
2021/08/16 10:07:20;;;;;;;8.77;6.90;;;;;;;32.50;37.35;98688.58;532536;1089;116349;-75
2021/08/16 10:17:36;;;;;;;7.87;6.10;;;;;;;32.30;37.23;98678.42;531909;1088;118165;-71
2021/08/16 10:27:43;;;;;;;7.43;5.13;;;;;;;32.13;36.07;98663.13;524505;1088;115824;-72
2021/08/16 10:37:52;;;;;;;5.10;4.30;;;;;;;31.86;35.77;98658.64;531747;1089;117164;-71
2021/08/16 10:48:04;;;;;;;8.30;4.35;;;;;;;31.96;34.91;98654.36;532610;1089;116610;-64
2021/08/16 10:58:12;;;;;;;4.83;3.70;;;;;;;31.53;33.69;98649.70;532595;1090;116670;-64
2021/08/16 11:08:30;;;;;;;6.13;3.77;;;;;;;31.81;34.50;98638.80;531497;1088;116757;-67
2021/08/16 11:18:38;;;;;;;5.50;2.83;;;;;;;32.06;32.58;98632.70;532563;1090;116157;-70
2021/08/16 11:28:44;;;;;;;9.75;2.18;;;;;;;31.89;31.47;98621.20;531900;1088;117152;-70
2021/08/16 11:38:54;;;;;;;;;;;;;;;31.66;31.85;98607.75;532659;1088;115597;-64
2021/08/16 11:49:07;;;;;;;6.17;3.50;;;;;;;31.23;32.72;98596.06;532894;1089;102677;-66
2021/08/16 11:59:16;;;;;;;6.50;2.80;;;;;;;31.06;33.25;98586.15;529396;1088;116220;-65
2021/08/16 12:09:33;;;;;;;3.77;2.90;;;;;;;30.68;32.74;98585.24;528400;1088;115879;-63
2021/08/16 12:19:39;;;;;;;3.33;2.90;;;;;;;30.56;33.70;98580.77;531759;1088;116522;-62
2021/08/16 12:29:48;;;;;;;5.13;3.18;;;;;;;30.53;34.15;98575.86;532586;1089;118247;-64
2021/08/16 12:40:05;;;;;;;3.50;3.20;;;;;;;30.84;34.24;98573.50;532642;1089;117849;-72
2021/08/16 12:50:13;;;;;;;5.93;3.50;;;;;;;30.70;34.56;98551.41;531852;1089;116626;-73
2021/08/16 13:00:20;;;;;;;3.33;3.03;;;;;;;30.78;34.32;98549.33;532560;1089;116156;-67
2021/08/16 13:10:27;;;;;;;5.57;3.80;;;;;;;30.58;34.17;98540.70;529729;1089;116715;-72
2021/08/16 13:20:36;;;;;;;3.57;3.23;;;;;;;30.66;34.37;98535.93;532492;1089;116068;-66
2021/08/16 13:30:43;;;;;;;4.63;2.87;;;;;;;30.85;34.38;98520.94;532585;1088;117041;-65
2021/08/16 13:40:49;;;;;;;3.85;3.10;;;;;;;30.84;33.99;98510.34;528453;1089;116764;-65
2021/08/16 13:50:56;;;;;;;3.55;3.23;;;;;;;30.81;33.57;98505.45;532498;1088;117642;-63
2021/08/16 14:01:04;;;;;;;6.18;3.08;;;;;;;30.74;33.83;98511.09;532504;1088;116546;-69
2021/08/16 14:11:11;;;;;;;4.27;2.87;;;;;;;30.76;33.45;98495.39;531868;1088;117906;-71
2021/08/16 14:21:18;;;;;;;5.77;2.93;;;;;;;30.70;32.46;98485.57;532533;1089;115579;-63
2021/08/16 14:31:30;;;;;;;4.10;3.30;;;;;;;31.21;32.55;98476.98;532503;1088;117416;-58
2021/08/16 14:41:38;;;;;;;3.50;3.03;;;;;;;31.03;32.34;98484.48;532503;1089;118639;-58
2021/08/16 14:51:44;;;;;;;5.10;3.53;;;;;;;30.43;33.26;98502.64;532585;1089;116654;-57
2021/08/16 15:01:51;;;;;;;5.93;3.33;;;;;;;29.90;33.58;98493.13;531491;1089;117246;-58
2021/08/16 15:11:57;;;;;;;6.38;5.78;;;;;;;29.34;34.07;98487.80;532514;1088;116494;-60
2021/08/16 15:22:05;;;;;;;3.35;3.05;;;;;;;28.83;35.36;98475.15;496363;1088;20001571;-61
2021/08/16 15:32:17;;;;;;;6.88;3.65;;;;;;;28.37;36.11;98494.08;531705;1089;116677;-61
2021/08/16 15:42:24;;;;;;;99.27;12.13;;;;;;;26.44;40.53;98628.11;529084;1089;116725;-59
2021/08/16 15:52:32;;;;;;;1.98;1.68;;;;;;;23.51;48.49;98603.43;530606;1089;117848;-59
2021/08/16 16:02:40;;;;;;;3.33;2.23;;;;;;;21.84;52.59;98630.24;532480;1089;115908;-59
2021/08/16 16:12:46;;;;;;;3.77;2.33;;;;;;;21.44;54.75;98669.14;532341;1089;116582;-59
2021/08/16 16:22:53;;;;;;;3.83;2.73;;;;;;;21.20;56.59;98649.83;531446;1089;116934;-61
2021/08/16 16:33:01;;;;;;;6.05;2.75;;;;;;;21.15;57.54;98605.02;531036;1088;116736;-59
2021/08/16 16:43:07;;;;;;;7.57;6.47;;;;;;;21.39;58.89;98586.95;530022;1088;116132;-58
2021/08/16 16:53:14;;;;;;;4.10;2.23;;;;;;;21.54;58.41;98581.52;522756;1089;10001572;-61
2021/08/16 17:03:21;;;;;;;8.23;4.53;;;;;;;21.76;59.46;98568.13;531374;1088;116737;-53
2021/08/16 17:13:28;;;;;;;4.03;2.80;;;;;;;21.74;59.84;98546.14;532538;1089;117514;-49
2021/08/16 17:23:35;;;;;;;6.83;3.25;;;;;;;21.68;60.66;98551.22;532535;1088;116212;-54
2021/08/16 17:33:43;;;;;;;3.70;3.27;;;;;;;21.57;61.31;98554.41;532486;1090;117171;-55
2021/08/16 17:43:51;;;;;;;4.40;3.75;;;;;;;21.28;62.19;98581.11;519010;1088;116839;-54
2021/08/16 17:53:58;;;;;;;5.58;4.35;;;;;;;20.78;62.86;98589.06;514002;1088;116432;-57
2021/08/16 18:04:06;;;;;;;7.57;4.80;;;;;;;20.36;64.29;98614.63;529684;1089;115950;-51
2021/08/16 18:14:11;;;;;;;;;;;;;;;20.06;65.56;98610.14;531643;1088;116675;-54
2021/08/16 18:24:18;;;;;;;6.60;4.65;;;;;;;19.86;66.09;98612.50;521019;1089;102543;-49
2021/08/16 18:34:25;;;;;;;6.57;4.53;;;;;;;19.84;66.88;98609.17;522229;1089;116498;-52
2021/08/16 18:44:32;;;;;;;9.80;5.33;;;;;;;19.92;67.67;98619.75;531700;1088;115963;-54
2021/08/16 18:54:39;;;;;;;9.33;5.43;;;;;;;19.94;68.13;98592.97;532465;1088;116611;-59
2021/08/16 19:04:46;;;;;;;7.00;4.97;;;;;;;19.91;68.54;98619.92;525625;1088;116944;-56
2021/08/16 19:14:52;;;;;;;7.93;5.70;;;;;;;19.80;69.54;98600.75;532438;1090;116442;-52
2021/08/16 19:25:00;;;;;;;8.33;6.90;;;;;;;19.66;69.79;98599.71;514480;1089;20001613;-49
2021/08/16 19:35:07;;;;;;;11.28;6.70;;;;;;;19.57;70.48;98601.64;530641;1088;116788;-56
2021/08/16 19:45:14;;;;;;;10.10;7.00;;;;;;;19.52;71.02;98603.19;532509;1088;116914;-58
2021/08/16 19:55:21;;;;;;;7.90;7.13;;;;;;;19.51;71.11;98605.01;530249;1089;117052;-58
2021/08/16 20:05:28;;;;;;;10.20;6.77;;;;;;;19.66;71.39;98631.67;521582;1088;116396;-58
2021/08/16 20:15:35;;;;;;;8.17;7.33;;;;;;;19.64;71.71;98617.72;530307;1089;117033;-57
2021/08/16 20:25:41;;;;;;;7.40;6.57;;;;;;;19.71;71.71;98613.30;529031;1090;116255;-58
2021/08/16 20:35:48;;;;;;;6.67;5.87;;;;;;;19.76;71.72;98606.62;521762;1089;117254;-57
2021/08/16 20:45:54;;;;;;;9.57;5.97;;;;;;;19.68;71.74;98615.48;517603;1088;116428;-57
2021/08/16 20:56:01;;;;;;;8.15;6.95;;;;;;;19.52;71.85;98619.97;516246;1088;116652;-59
2021/08/16 21:06:08;;;;;;;7.30;6.15;;;;;;;19.21;71.97;98610.23;527947;1089;117367;-61
2021/08/16 21:16:14;;;;;;;6.53;5.77;;;;;;;19.10;72.49;98622.14;532560;1088;116610;-60
2021/08/16 21:26:19;;;;;;;;;;;;;;;19.05;72.74;98632.50;527246;1089;116590;-60
2021/08/16 21:36:25;;;;;;;6.20;5.60;;;;;;;19.03;72.83;98623.84;515163;1089;103175;-61
2021/08/16 21:46:32;;;;;;;7.80;6.30;;;;;;;19.01;73.09;98623.20;514560;1088;117193;-57
2021/08/16 21:56:39;;;;;;;7.23;6.40;;;;;;;19.02;72.98;98608.89;514847;1089;179301;-60
2021/08/16 22:06:46;;;;;;;7.33;6.47;;;;;;;19.03;73.61;98621.19;515218;1089;116132;-60
2021/08/16 22:16:53;;;;;;;7.93;5.77;;;;;;;19.00;73.36;98621.55;514485;1088;116485;-60
2021/08/16 22:27:00;;;;;;;7.77;6.63;;;;;;;18.99;73.47;98609.22;514954;1088;117064;-61
2021/08/16 22:37:07;;;;;;;8.23;5.83;;;;;;;18.95;73.48;98603.42;514822;1088;116897;-62
2021/08/16 22:47:15;;;;;;;7.70;6.83;;;;;;;18.94;73.85;98607.09;514975;1090;116575;-61
2021/08/16 22:57:22;;;;;;;7.88;6.63;;;;;;;18.93;73.61;98604.59;515509;1089;117029;-63
2021/08/16 23:07:30;;;;;;;6.93;5.20;;;;;;;18.90;73.44;98611.93;515584;1088;116209;-63
2021/08/16 23:17:37;;;;;;;7.57;5.40;;;;;;;18.84;72.72;98622.45;515574;1090;116236;-64
2021/08/16 23:27:45;;;;;;;5.53;5.00;;;;;;;18.75;72.10;98616.36;515668;1088;115942;-65
2021/08/16 23:37:50;;;;;;;;;;;;;;;18.74;71.37;98620.02;514748;1088;116423;-60
2021/08/16 23:47:56;;;;;;;6.63;4.15;;;;;;;18.59;70.87;98623.44;515156;1089;102928;-60
2021/08/16 23:58:03;;;;;;;5.23;3.97;;;;;;;18.48;70.31;98621.16;524242;1088;116624;-60
